EKAH/AAR METAR and TAF weather

Enter ICAO airport designator
Station Type Date Time Source
EKAH METAR 2019/12/11 17:20 UTC NOAA

EKAH 111720Z AUTO 18004KT 150V230 9999NDV FEW011/// BKN180/// 06/05 Q1003


Station Type Date Time Source
EKAH Decoded METAR 2019/12/11 17:20 UTC NOAA

Tirstrup, Denmark (EKAH) 56-18N 010-37E 25M
Dec 11, 2019 - 12:20 PM EST / 2019.12.11 1720 UTC
Wind: from the S (180 degrees) at 5 MPH (4 KT) (direction variable):0
Sky conditions: mostly cloudy
Temperature: 42 F (6 C)
Dew Point: 41 F (5 C)
Relative Humidity: 93%
Pressure (altimeter): 29.62 in. Hg (1003 hPa)
ob: EKAH 111720Z AUTO 18004KT 150V230 9999NDV FEW011/// BKN180/// 06/05 Q1003
cycle: 17

Station Type Date Time Source
EKAH TAF 2019/12/11 18:08 UTC NOAA

TAF EKAH 111702Z 1118/1218 19008KT 9999 SCT010 BKN030
TEMPO 1118/1122 BKN008
TEMPO 1122/1208 4000 BR BKN008
TEMPO 1208/1215 BKN008
TEMPO 1215/1218 SHRA BKN010CB

Example: see airport list